KGOP

Gatesville Municipal Airport

Gatesville, Texas, USA
METAR KGOP 250455Z AUTO 00000KT 10SM CLR 24/19 A3004 RMK AO2
Observed Flight Rules
May-25 @ 04:55 UTC (28 minutes ago) Visual Flight Rules
Visibility Clouds
10 miles
  • Clear skies
Temperatures Readings
Current 24°C / 75°F
Dewpoint 19°C / 66°F
Humidity 74%
Altimeter 30.04" Hg
Pressure 1017 hPa
Elevation 276
METAR KGOP 250455Z AUTO 00000KT 10SM CLR 24/19 A3004 RMK AO2
Observed Flight Rules
May-25 @ 04:55 UTC
(28 minutes ago)
VFR
Clouds
  • Clear skies
Temperature Dewpoint
24°C / 75°F 19°C / 66°F
Humidity Altimeter Pressure
74% 30.04" Hg 1017 hPa